Log in  \/ 
x
x

Ramona Operations

Additional info
  • Operations Officer: Julie Keane
  • Phone Number: 760-703-1967
  • E-Mail: rnmops@plusoneflyers.org
Comments
  • No comments found

Leave your comments

0 Character restriction
Your text should be more than 10 characters
terms and condition.
Special Instructions

To access the field, press #### to call for entry.

Ramona Weather

[source: ADDS]
METAR
KRNM 252100Z 00000KT 10SM BKN030 17/11 A3008 RMK AO2 T01670111 $ =
KNKX 252055Z 29006KT 10SM SCT015 BKN026 21/11 A3008 RMK AO2 SLP181 T02110106 56018 $ =
TAF
TAF KNKX 2521/2621 VRB05KT 9999 SCT015 BKN026 QNH2999INS TEMPO 2521/2602 30009KT FM260330 VRB05KT 9999 FEW020 SCT050 QNH2998INS T21/2521Z T11/2612Z =
SR / SS: 13:43 / 02:03 UTC ( 2017-03-25)

Ramona Operations Map